Terminal Aerodrome Forecast
Issued by NWS

Home | Current Version | Previous Version | Text Only | Print | Product List | Glossary On
Versions: 1 2 3 4 5 6 7 8 9 10 11 12 13 14 15 16 17 18 19 20 21 22 23 24 25 26 27 28 29 30 31 32 33 34 35 36
000
FTUS45 KTWC 310540
TAFOLS
TAF
KOLS 310540Z 3106/0106 25005KT P6SM BKN060 BKN090
     FM310800 17012KT P6SM VCTS SCT040 BKN060CB BKN090
     FM311000 22008KT P6SM BKN110 BKN180
     FM311400 VRB03KT P6SM FEW120 SCT250
     FM311900 26010KT P6SM SCT070=

USA.gov is the U.S. government's official web portal to all federal, state and local government web resources and services.